sensor_id;sensor_type;location;lat;lon;timestamp;temperature;humidity
25332;DHT22;13284;52.748;13.452;2024-03-02T00:01:09;6.30;99.90
25332;DHT22;13284;52.748;13.452;2024-03-02T00:03:36;6.30;99.90
25332;DHT22;13284;52.748;13.452;2024-03-02T00:06:02;6.30;99.90
25332;DHT22;13284;52.748;13.452;2024-03-02T00:08:29;6.20;99.90
25332;DHT22;13284;52.748;13.452;2024-03-02T00:10:59;6.10;99.90
25332;DHT22;13284;52.748;13.452;2024-03-02T00:13:25;6.10;99.90
25332;DHT22;13284;52.748;13.452;2024-03-02T00:15:53;6.10;99.90
25332;DHT22;13284;52.748;13.452;2024-03-02T00:18:39;6.10;99.90
25332;DHT22;13284;52.748;13.452;2024-03-02T00:21:07;6.20;99.90
25332;DHT22;13284;52.748;13.452;2024-03-02T00:23:35;6.20;99.90
25332;DHT22;13284;52.748;13.452;2024-03-02T00:26:01;6.20;99.90
25332;DHT22;13284;52.748;13.452;2024-03-02T00:28:29;6.20;99.90
25332;DHT22;13284;52.748;13.452;2024-03-02T00:31:12;6.30;99.90
25332;DHT22;13284;52.748;13.452;2024-03-02T00:33:46;6.20;99.90
25332;DHT22;13284;52.748;13.452;2024-03-02T00:36:15;6.30;99.90
25332;DHT22;13284;52.748;13.452;2024-03-02T00:38:45;6.20;99.90
25332;DHT22;13284;52.748;13.452;2024-03-02T00:41:23;6.20;99.90
25332;DHT22;13284;52.748;13.452;2024-03-02T00:43:52;6.20;99.90
25332;DHT22;13284;52.748;13.452;2024-03-02T00:46:20;6.30;99.90
25332;DHT22;13284;52.748;13.452;2024-03-02T00:48:57;6.30;99.90
25332;DHT22;13284;52.748;13.452;2024-03-02T00:51:24;6.30;99.90
25332;DHT22;13284;52.748;13.452;2024-03-02T00:53:50;6.20;99.90
25332;DHT22;13284;52.748;13.452;2024-03-02T00:56:16;6.30;99.90
25332;DHT22;13284;52.748;13.452;2024-03-02T00:58:42;6.30;99.90
25332;DHT22;13284;52.748;13.452;2024-03-02T01:01:08;6.30;99.90
25332;DHT22;13284;52.748;13.452;2024-03-02T01:03:34;6.30;99.90
25332;DHT22;13284;52.748;13.452;2024-03-02T01:05:59;6.30;99.90
25332;DHT22;13284;52.748;13.452;2024-03-02T01:08:25;6.30;99.90
25332;DHT22;13284;52.748;13.452;2024-03-02T01:10:51;6.30;99.90
25332;DHT22;13284;52.748;13.452;2024-03-02T01:13:16;6.30;99.90
25332;DHT22;13284;52.748;13.452;2024-03-02T01:15:42;6.40;99.90
25332;DHT22;13284;52.748;13.452;2024-03-02T01:18:07;6.50;99.90
25332;DHT22;13284;52.748;13.452;2024-03-02T01:20:34;6.50;99.90
25332;DHT22;13284;52.748;13.452;2024-03-02T01:22:59;6.50;99.90
25332;DHT22;13284;52.748;13.452;2024-03-02T01:25:24;6.60;99.90
25332;DHT22;13284;52.748;13.452;2024-03-02T01:27:50;6.60;99.90
25332;DHT22;13284;52.748;13.452;2024-03-02T01:30:16;6.70;99.90
25332;DHT22;13284;52.748;13.452;2024-03-02T01:32:42;6.70;99.90
25332;DHT22;13284;52.748;13.452;2024-03-02T01:35:07;6.70;99.90
25332;DHT22;13284;52.748;13.452;2024-03-02T01:37:33;6.70;99.90
25332;DHT22;13284;52.748;13.452;2024-03-02T01:39:58;6.80;99.90
25332;DHT22;13284;52.748;13.452;2024-03-02T01:42:24;6.80;99.90
25332;DHT22;13284;52.748;13.452;2024-03-02T01:44:50;6.80;99.90
25332;DHT22;13284;52.748;13.452;2024-03-02T01:47:15;6.80;99.90
25332;DHT22;13284;52.748;13.452;2024-03-02T01:49:41;6.80;99.90
25332;DHT22;13284;52.748;13.452;2024-03-02T01:52:07;6.80;99.90
25332;DHT22;13284;52.748;13.452;2024-03-02T01:54:33;6.80;99.90
25332;DHT22;13284;52.748;13.452;2024-03-02T01:56:59;6.70;99.90
25332;DHT22;13284;52.748;13.452;2024-03-02T01:59:25;6.80;99.90
25332;DHT22;13284;52.748;13.452;2024-03-02T02:01:50;6.80;99.90
25332;DHT22;13284;52.748;13.452;2024-03-02T02:04:16;6.90;99.90
25332;DHT22;13284;52.748;13.452;2024-03-02T02:06:43;6.80;99.90
25332;DHT22;13284;52.748;13.452;2024-03-02T02:09:10;6.70;99.90
25332;DHT22;13284;52.748;13.452;2024-03-02T02:11:36;6.70;99.90
25332;DHT22;13284;52.748;13.452;2024-03-02T02:14:01;6.70;99.90
25332;DHT22;13284;52.748;13.452;2024-03-02T02:16:27;6.70;99.90
25332;DHT22;13284;52.748;13.452;2024-03-02T02:18:52;6.70;99.90
25332;DHT22;13284;52.748;13.452;2024-03-02T02:21:18;6.70;99.90
25332;DHT22;13284;52.748;13.452;2024-03-02T02:23:43;6.80;99.90
25332;DHT22;13284;52.748;13.452;2024-03-02T02:26:13;6.80;99.90
25332;DHT22;13284;52.748;13.452;2024-03-02T02:28:39;6.70;99.90
25332;DHT22;13284;52.748;13.452;2024-03-02T02:31:15;6.70;99.90
25332;DHT22;13284;52.748;13.452;2024-03-02T02:33:40;6.60;99.90
25332;DHT22;13284;52.748;13.452;2024-03-02T02:36:06;6.60;99.90
25332;DHT22;13284;52.748;13.452;2024-03-02T02:38:44;6.60;99.90
25332;DHT22;13284;52.748;13.452;2024-03-02T02:41:09;6.60;99.90
25332;DHT22;13284;52.748;13.452;2024-03-02T02:43:35;6.70;99.90
25332;DHT22;13284;52.748;13.452;2024-03-02T02:46:00;6.70;99.90
25332;DHT22;13284;52.748;13.452;2024-03-02T02:48:26;6.80;99.90
25332;DHT22;13284;52.748;13.452;2024-03-02T02:50:51;6.70;99.90
25332;DHT22;13284;52.748;13.452;2024-03-02T02:53:17;6.60;99.90
25332;DHT22;13284;52.748;13.452;2024-03-02T02:55:42;6.60;99.90
25332;DHT22;13284;52.748;13.452;2024-03-02T02:58:09;6.50;99.90
25332;DHT22;13284;52.748;13.452;2024-03-02T03:00:34;6.60;99.90
25332;DHT22;13284;52.748;13.452;2024-03-02T03:03:01;6.50;99.90
25332;DHT22;13284;52.748;13.452;2024-03-02T03:05:27;6.50;99.90
25332;DHT22;13284;52.748;13.452;2024-03-02T03:07:52;6.50;99.90
25332;DHT22;13284;52.748;13.452;2024-03-02T03:10:18;6.60;99.90
25332;DHT22;13284;52.748;13.452;2024-03-02T03:12:44;6.60;99.90
25332;DHT22;13284;52.748;13.452;2024-03-02T03:15:10;6.60;99.90
25332;DHT22;13284;52.748;13.452;2024-03-02T03:17:36;6.60;99.90
25332;DHT22;13284;52.748;13.452;2024-03-02T03:20:03;6.60;99.90
25332;DHT22;13284;52.748;13.452;2024-03-02T03:22:30;6.70;99.90
25332;DHT22;13284;52.748;13.452;2024-03-02T03:24:56;6.70;99.90
25332;DHT22;13284;52.748;13.452;2024-03-02T03:27:21;6.70;99.90
25332;DHT22;13284;52.748;13.452;2024-03-02T03:29:47;6.70;99.90
25332;DHT22;13284;52.748;13.452;2024-03-02T03:32:13;6.80;99.90
25332;DHT22;13284;52.748;13.452;2024-03-02T03:34:39;6.80;99.90
25332;DHT22;13284;52.748;13.452;2024-03-02T03:37:04;6.80;99.90
25332;DHT22;13284;52.748;13.452;2024-03-02T03:39:30;6.80;99.90
25332;DHT22;13284;52.748;13.452;2024-03-02T03:41:55;6.90;99.90
25332;DHT22;13284;52.748;13.452;2024-03-02T03:44:21;6.90;99.90
25332;DHT22;13284;52.748;13.452;2024-03-02T03:46:46;6.90;99.90
25332;DHT22;13284;52.748;13.452;2024-03-02T03:49:12;6.90;99.90
25332;DHT22;13284;52.748;13.452;2024-03-02T03:51:37;7.00;99.90
25332;DHT22;13284;52.748;13.452;2024-03-02T03:54:03;7.00;99.90
25332;DHT22;13284;52.748;13.452;2024-03-02T03:56:28;7.10;99.90
25332;DHT22;13284;52.748;13.452;2024-03-02T03:58:54;7.10;99.90
25332;DHT22;13284;52.748;13.452;2024-03-02T04:01:19;7.10;99.90
25332;DHT22;13284;52.748;13.452;2024-03-02T04:03:45;7.20;99.90
25332;DHT22;13284;52.748;13.452;2024-03-02T04:06:10;7.20;99.90
25332;DHT22;13284;52.748;13.452;2024-03-02T04:08:36;7.20;99.90
25332;DHT22;13284;52.748;13.452;2024-03-02T04:11:01;7.20;99.90
25332;DHT22;13284;52.748;13.452;2024-03-02T04:13:28;7.20;99.90
25332;DHT22;13284;52.748;13.452;2024-03-02T04:15:53;7.30;99.90
25332;DHT22;13284;52.748;13.452;2024-03-02T04:18:19;7.40;99.90
25332;DHT22;13284;52.748;13.452;2024-03-02T04:20:44;7.50;99.90
25332;DHT22;13284;52.748;13.452;2024-03-02T04:23:10;7.70;99.90
25332;DHT22;13284;52.748;13.452;2024-03-02T04:25:35;7.70;99.90
25332;DHT22;13284;52.748;13.452;2024-03-02T04:28:01;7.80;99.90
25332;DHT22;13284;52.748;13.452;2024-03-02T04:30:27;7.90;99.90
25332;DHT22;13284;52.748;13.452;2024-03-02T04:32:52;8.00;99.90
25332;DHT22;13284;52.748;13.452;2024-03-02T04:35:17;8.10;99.90
25332;DHT22;13284;52.748;13.452;2024-03-02T04:37:43;8.20;99.90
25332;DHT22;13284;52.748;13.452;2024-03-02T04:40:09;8.20;99.90
25332;DHT22;13284;52.748;13.452;2024-03-02T04:42:35;8.30;99.90
25332;DHT22;13284;52.748;13.452;2024-03-02T04:45:01;8.30;99.90
25332;DHT22;13284;52.748;13.452;2024-03-02T04:47:26;8.30;99.90
25332;DHT22;13284;52.748;13.452;2024-03-02T04:49:52;8.40;99.90
25332;DHT22;13284;52.748;13.452;2024-03-02T04:52:18;8.40;99.90
25332;DHT22;13284;52.748;13.452;2024-03-02T04:54:43;8.40;99.90
25332;DHT22;13284;52.748;13.452;2024-03-02T04:57:27;8.40;99.90
25332;DHT22;13284;52.748;13.452;2024-03-02T04:59:53;8.50;99.90
25332;DHT22;13284;52.748;13.452;2024-03-02T05:02:18;8.50;99.90
25332;DHT22;13284;52.748;13.452;2024-03-02T05:04:44;8.60;99.90
25332;DHT22;13284;52.748;13.452;2024-03-02T05:07:10;8.60;99.90
25332;DHT22;13284;52.748;13.452;2024-03-02T05:09:35;8.60;99.90
25332;DHT22;13284;52.748;13.452;2024-03-02T05:12:01;8.60;99.90
25332;DHT22;13284;52.748;13.452;2024-03-02T05:14:46;8.60;99.90
25332;DHT22;13284;52.748;13.452;2024-03-02T05:17:11;8.60;99.90
25332;DHT22;13284;52.748;13.452;2024-03-02T05:19:37;8.60;99.90
25332;DHT22;13284;52.748;13.452;2024-03-02T05:22:02;8.60;99.90
25332;DHT22;13284;52.748;13.452;2024-03-02T05:24:28;8.70;99.90
25332;DHT22;13284;52.748;13.452;2024-03-02T05:26:54;8.70;99.90
25332;DHT22;13284;52.748;13.452;2024-03-02T05:29:19;8.70;99.90
25332;DHT22;13284;52.748;13.452;2024-03-02T05:31:45;8.80;99.90
25332;DHT22;13284;52.748;13.452;2024-03-02T05:34:11;8.80;99.90
25332;DHT22;13284;52.748;13.452;2024-03-02T05:36:36;8.80;99.90
25332;DHT22;13284;52.748;13.452;2024-03-02T05:39:04;8.70;99.90
25332;DHT22;13284;52.748;13.452;2024-03-02T05:41:31;8.80;99.90
25332;DHT22;13284;52.748;13.452;2024-03-02T05:43:57;8.70;99.90
25332;DHT22;13284;52.748;13.452;2024-03-02T05:46:22;8.80;99.90
25332;DHT22;13284;52.748;13.452;2024-03-02T05:48:48;8.80;99.90
25332;DHT22;13284;52.748;13.452;2024-03-02T05:51:13;8.80;99.90
25332;DHT22;13284;52.748;13.452;2024-03-02T05:53:39;8.90;99.90
25332;DHT22;13284;52.748;13.452;2024-03-02T05:56:05;8.90;99.90
25332;DHT22;13284;52.748;13.452;2024-03-02T05:58:31;8.90;99.90
25332;DHT22;13284;52.748;13.452;2024-03-02T06:01:17;8.90;99.90
25332;DHT22;13284;52.748;13.452;2024-03-02T06:03:43;8.90;99.90
25332;DHT22;13284;52.748;13.452;2024-03-02T06:06:09;8.90;99.90
25332;DHT22;13284;52.748;13.452;2024-03-02T06:08:34;8.90;99.90
25332;DHT22;13284;52.748;13.452;2024-03-02T06:11:00;8.90;99.90
25332;DHT22;13284;52.748;13.452;2024-03-02T06:13:26;8.90;99.90
25332;DHT22;13284;52.748;13.452;2024-03-02T06:15:52;8.90;99.90
25332;DHT22;13284;52.748;13.452;2024-03-02T06:18:18;9.00;99.90
25332;DHT22;13284;52.748;13.452;2024-03-02T06:20:44;9.00;99.90
25332;DHT22;13284;52.748;13.452;2024-03-02T06:23:10;9.00;99.90
25332;DHT22;13284;52.748;13.452;2024-03-02T06:25:36;9.00;99.90
25332;DHT22;13284;52.748;13.452;2024-03-02T06:28:04;9.00;99.90
25332;DHT22;13284;52.748;13.452;2024-03-02T06:30:30;9.00;99.90
25332;DHT22;13284;52.748;13.452;2024-03-02T06:32:56;9.00;99.90
25332;DHT22;13284;52.748;13.452;2024-03-02T06:35:21;9.00;99.90
25332;DHT22;13284;52.748;13.452;2024-03-02T06:37:47;9.00;99.90
25332;DHT22;13284;52.748;13.452;2024-03-02T06:40:13;9.00;99.90
25332;DHT22;13284;52.748;13.452;2024-03-02T06:42:38;9.00;99.90
25332;DHT22;13284;52.748;13.452;2024-03-02T06:45:04;9.00;99.90
25332;DHT22;13284;52.748;13.452;2024-03-02T06:47:29;9.00;99.90
25332;DHT22;13284;52.748;13.452;2024-03-02T06:49:55;9.10;99.90
25332;DHT22;13284;52.748;13.452;2024-03-02T06:52:22;9.10;99.90
25332;DHT22;13284;52.748;13.452;2024-03-02T06:54:48;9.00;99.90
25332;DHT22;13284;52.748;13.452;2024-03-02T06:57:13;9.10;99.90
25332;DHT22;13284;52.748;13.452;2024-03-02T06:59:39;9.20;99.90
25332;DHT22;13284;52.748;13.452;2024-03-02T07:02:04;9.10;99.90
25332;DHT22;13284;52.748;13.452;2024-03-02T07:04:30;9.20;99.90
25332;DHT22;13284;52.748;13.452;2024-03-02T07:06:55;9.30;99.90
25332;DHT22;13284;52.748;13.452;2024-03-02T07:09:21;9.30;99.90
25332;DHT22;13284;52.748;13.452;2024-03-02T07:11:48;9.30;99.90
25332;DHT22;13284;52.748;13.452;2024-03-02T07:14:14;9.40;99.90
25332;DHT22;13284;52.748;13.452;2024-03-02T07:16:40;9.50;99.90
25332;DHT22;13284;52.748;13.452;2024-03-02T07:19:06;9.50;99.90
25332;DHT22;13284;52.748;13.452;2024-03-02T07:21:31;9.50;99.90
25332;DHT22;13284;52.748;13.452;2024-03-02T07:23:58;9.50;99.90
25332;DHT22;13284;52.748;13.452;2024-03-02T07:26:24;9.50;99.90
25332;DHT22;13284;52.748;13.452;2024-03-02T07:28:50;9.50;99.90
25332;DHT22;13284;52.748;13.452;2024-03-02T07:31:16;9.60;99.90
25332;DHT22;13284;52.748;13.452;2024-03-02T07:33:44;9.60;99.90
25332;DHT22;13284;52.748;13.452;2024-03-02T07:36:09;9.60;99.90
25332;DHT22;13284;52.748;13.452;2024-03-02T07:38:35;9.60;99.90
25332;DHT22;13284;52.748;13.452;2024-03-02T07:41:00;9.70;99.90
25332;DHT22;13284;52.748;13.452;2024-03-02T07:43:26;9.80;99.90
25332;DHT22;13284;52.748;13.452;2024-03-02T07:45:52;9.80;99.90
25332;DHT22;13284;52.748;13.452;2024-03-02T07:48:18;9.80;99.90
25332;DHT22;13284;52.748;13.452;2024-03-02T07:50:43;9.90;99.90
25332;DHT22;13284;52.748;13.452;2024-03-02T07:53:10;9.90;99.90
25332;DHT22;13284;52.748;13.452;2024-03-02T07:55:35;10.00;99.90
25332;DHT22;13284;52.748;13.452;2024-03-02T07:58:01;9.90;99.90
25332;DHT22;13284;52.748;13.452;2024-03-02T08:00:27;10.00;99.90
25332;DHT22;13284;52.748;13.452;2024-03-02T08:02:54;10.00;99.90
25332;DHT22;13284;52.748;13.452;2024-03-02T08:05:20;10.00;99.90
25332;DHT22;13284;52.748;13.452;2024-03-02T08:07:46;10.00;99.90
25332;DHT22;13284;52.748;13.452;2024-03-02T08:10:13;10.00;99.90
25332;DHT22;13284;52.748;13.452;2024-03-02T08:12:38;10.10;99.90
25332;DHT22;13284;52.748;13.452;2024-03-02T08:15:04;10.00;99.90
25332;DHT22;13284;52.748;13.452;2024-03-02T08:17:30;10.10;99.90
25332;DHT22;13284;52.748;13.452;2024-03-02T08:19:56;10.00;99.90
25332;DHT22;13284;52.748;13.452;2024-03-02T08:22:23;10.00;99.90
25332;DHT22;13284;52.748;13.452;2024-03-02T08:24:50;10.10;99.90
25332;DHT22;13284;52.748;13.452;2024-03-02T08:27:16;10.10;99.90
25332;DHT22;13284;52.748;13.452;2024-03-02T08:29:42;10.10;99.90
25332;DHT22;13284;52.748;13.452;2024-03-02T08:32:07;10.20;99.90
25332;DHT22;13284;52.748;13.452;2024-03-02T08:34:33;10.20;99.90
25332;DHT22;13284;52.748;13.452;2024-03-02T08:37:01;10.30;99.90
25332;DHT22;13284;52.748;13.452;2024-03-02T08:39:26;10.30;99.90
25332;DHT22;13284;52.748;13.452;2024-03-02T08:41:52;10.30;99.90
25332;DHT22;13284;52.748;13.452;2024-03-02T08:44:18;10.40;99.90
25332;DHT22;13284;52.748;13.452;2024-03-02T08:46:44;10.40;99.90
25332;DHT22;13284;52.748;13.452;2024-03-02T08:49:09;10.40;99.90
25332;DHT22;13284;52.748;13.452;2024-03-02T08:51:35;10.40;99.90
25332;DHT22;13284;52.748;13.452;2024-03-02T08:54:00;10.40;99.90
25332;DHT22;13284;52.748;13.452;2024-03-02T08:56:26;10.40;99.90
25332;DHT22;13284;52.748;13.452;2024-03-02T08:58:52;10.40;99.90
25332;DHT22;13284;52.748;13.452;2024-03-02T09:01:18;10.40;99.90
25332;DHT22;13284;52.748;13.452;2024-03-02T09:03:44;10.50;99.90
25332;DHT22;13284;52.748;13.452;2024-03-02T09:06:11;10.60;99.90
25332;DHT22;13284;52.748;13.452;2024-03-02T09:08:36;10.50;99.90
25332;DHT22;13284;52.748;13.452;2024-03-02T09:11:04;10.60;99.90
25332;DHT22;13284;52.748;13.452;2024-03-02T09:13:31;10.60;99.90
25332;DHT22;13284;52.748;13.452;2024-03-02T09:15:56;10.60;99.90
25332;DHT22;13284;52.748;13.452;2024-03-02T09:18:22;10.50;99.90
25332;DHT22;13284;52.748;13.452;2024-03-02T09:20:47;10.40;99.90
25332;DHT22;13284;52.748;13.452;2024-03-02T09:23:13;10.50;99.90
25332;DHT22;13284;52.748;13.452;2024-03-02T09:25:38;10.50;99.90
25332;DHT22;13284;52.748;13.452;2024-03-02T09:28:04;10.50;99.90
25332;DHT22;13284;52.748;13.452;2024-03-02T09:30:29;10.30;99.90
25332;DHT22;13284;52.748;13.452;2024-03-02T09:32:55;10.30;99.90
25332;DHT22;13284;52.748;13.452;2024-03-02T09:35:20;10.40;99.90
25332;DHT22;13284;52.748;13.452;2024-03-02T09:37:46;10.40;99.90
25332;DHT22;13284;52.748;13.452;2024-03-02T09:40:12;10.40;99.90
25332;DHT22;13284;52.748;13.452;2024-03-02T09:42:39;10.50;99.90
25332;DHT22;13284;52.748;13.452;2024-03-02T09:45:05;10.50;99.90
25332;DHT22;13284;52.748;13.452;2024-03-02T09:47:31;10.50;99.90
25332;DHT22;13284;52.748;13.452;2024-03-02T09:49:57;10.60;99.90
25332;DHT22;13284;52.748;13.452;2024-03-02T09:52:23;10.70;99.90
25332;DHT22;13284;52.748;13.452;2024-03-02T09:54:49;10.80;99.90
25332;DHT22;13284;52.748;13.452;2024-03-02T09:57:15;10.80;99.90
25332;DHT22;13284;52.748;13.452;2024-03-02T09:59:40;10.90;99.90
25332;DHT22;13284;52.748;13.452;2024-03-02T10:02:06;11.00;99.90
25332;DHT22;13284;52.748;13.452;2024-03-02T10:04:32;11.20;99.90
25332;DHT22;13284;52.748;13.452;2024-03-02T10:07:16;11.40;99.90
25332;DHT22;13284;52.748;13.452;2024-03-02T10:09:42;11.50;99.90
25332;DHT22;13284;52.748;13.452;2024-03-02T10:12:09;11.60;99.90
25332;DHT22;13284;52.748;13.452;2024-03-02T10:14:36;11.60;99.90
25332;DHT22;13284;52.748;13.452;2024-03-02T10:17:07;11.60;99.90
25332;DHT22;13284;52.748;13.452;2024-03-02T10:19:33;11.70;99.90
25332;DHT22;13284;52.748;13.452;2024-03-02T10:22:00;11.90;99.90
25332;DHT22;13284;52.748;13.452;2024-03-02T10:24:26;11.90;99.90
25332;DHT22;13284;52.748;13.452;2024-03-02T10:26:52;12.00;99.90
25332;DHT22;13284;52.748;13.452;2024-03-02T10:29:18;12.00;99.90
25332;DHT22;13284;52.748;13.452;2024-03-02T10:31:45;12.30;99.90
25332;DHT22;13284;52.748;13.452;2024-03-02T10:34:11;12.50;99.90
25332;DHT22;13284;52.748;13.452;2024-03-02T10:36:40;12.60;99.90
25332;DHT22;13284;52.748;13.452;2024-03-02T10:39:07;12.70;99.90
25332;DHT22;13284;52.748;13.452;2024-03-02T10:41:36;12.80;99.90
25332;DHT22;13284;52.748;13.452;2024-03-02T10:44:04;12.90;99.90
25332;DHT22;13284;52.748;13.452;2024-03-02T10:46:31;12.90;99.90
25332;DHT22;13284;52.748;13.452;2024-03-02T10:48:57;12.90;99.90
25332;DHT22;13284;52.748;13.452;2024-03-02T10:51:25;12.90;99.90
25332;DHT22;13284;52.748;13.452;2024-03-02T10:53:51;12.90;99.90
25332;DHT22;13284;52.748;13.452;2024-03-02T10:56:28;13.10;99.90
25332;DHT22;13284;52.748;13.452;2024-03-02T10:58:59;13.00;99.90
25332;DHT22;13284;52.748;13.452;2024-03-02T11:01:27;13.00;99.90
25332;DHT22;13284;52.748;13.452;2024-03-02T11:03:54;13.20;99.90
25332;DHT22;13284;52.748;13.452;2024-03-02T11:06:20;13.30;99.90
25332;DHT22;13284;52.748;13.452;2024-03-02T11:08:48;13.60;99.90
25332;DHT22;13284;52.748;13.452;2024-03-02T11:11:17;13.90;99.90
25332;DHT22;13284;52.748;13.452;2024-03-02T11:13:49;13.70;99.90
25332;DHT22;13284;52.748;13.452;2024-03-02T11:16:35;13.70;99.90
25332;DHT22;13284;52.748;13.452;2024-03-02T11:19:04;13.80;99.90
25332;DHT22;13284;52.748;13.452;2024-03-02T11:21:33;13.80;99.90
25332;DHT22;13284;52.748;13.452;2024-03-02T11:23:58;13.70;99.90
25332;DHT22;13284;52.748;13.452;2024-03-02T11:26:24;13.90;99.90
25332;DHT22;13284;52.748;13.452;2024-03-02T11:28:50;14.00;99.90
25332;DHT22;13284;52.748;13.452;2024-03-02T11:31:16;13.90;99.90
25332;DHT22;13284;52.748;13.452;2024-03-02T11:33:41;14.00;99.90
25332;DHT22;13284;52.748;13.452;2024-03-02T11:36:08;14.00;99.90
25332;DHT22;13284;52.748;13.452;2024-03-02T11:38:35;14.40;99.90
25332;DHT22;13284;52.748;13.452;2024-03-02T11:41:07;14.70;99.90
25332;DHT22;13284;52.748;13.452;2024-03-02T11:43:37;15.00;99.90
25332;DHT22;13284;52.748;13.452;2024-03-02T11:46:05;14.80;99.90
25332;DHT22;13284;52.748;13.452;2024-03-02T11:48:35;14.70;99.90
25332;DHT22;13284;52.748;13.452;2024-03-02T11:51:02;14.80;99.90
25332;DHT22;13284;52.748;13.452;2024-03-02T11:53:28;14.70;99.90
25332;DHT22;13284;52.748;13.452;2024-03-02T11:55:55;14.30;99.90
25332;DHT22;13284;52.748;13.452;2024-03-02T11:58:21;14.50;99.90
25332;DHT22;13284;52.748;13.452;2024-03-02T12:00:55;14.70;99.90
25332;DHT22;13284;52.748;13.452;2024-03-02T12:03:25;14.70;99.90
25332;DHT22;13284;52.748;13.452;2024-03-02T12:05:53;14.80;99.90
25332;DHT22;13284;52.748;13.452;2024-03-02T12:08:19;15.10;99.90
25332;DHT22;13284;52.748;13.452;2024-03-02T12:10:59;15.00;99.90
25332;DHT22;13284;52.748;13.452;2024-03-02T12:13:26;14.50;99.90
25332;DHT22;13284;52.748;13.452;2024-03-02T12:15:54;14.60;99.90
25332;DHT22;13284;52.748;13.452;2024-03-02T12:18:23;14.70;99.90
25332;DHT22;13284;52.748;13.452;2024-03-02T12:20:50;14.80;99.90
25332;DHT22;13284;52.748;13.452;2024-03-02T12:23:21;14.90;99.90
25332;DHT22;13284;52.748;13.452;2024-03-02T12:25:47;14.40;99.90
25332;DHT22;13284;52.748;13.452;2024-03-02T12:28:13;14.60;99.90
25332;DHT22;13284;52.748;13.452;2024-03-02T12:30:38;14.80;99.90
25332;DHT22;13284;52.748;13.452;2024-03-02T12:33:05;14.90;99.90
25332;DHT22;13284;52.748;13.452;2024-03-02T12:35:30;14.90;99.90
25332;DHT22;13284;52.748;13.452;2024-03-02T12:37:55;15.00;99.90
25332;DHT22;13284;52.748;13.452;2024-03-02T12:40:22;15.10;99.90
25332;DHT22;13284;52.748;13.452;2024-03-02T12:42:48;15.20;99.90
25332;DHT22;13284;52.748;13.452;2024-03-02T12:45:14;15.30;99.90
25332;DHT22;13284;52.748;13.452;2024-03-02T12:47:41;15.20;99.90
25332;DHT22;13284;52.748;13.452;2024-03-02T12:50:07;15.70;99.90
25332;DHT22;13284;52.748;13.452;2024-03-02T12:52:33;15.90;99.90
25332;DHT22;13284;52.748;13.452;2024-03-02T12:55:04;15.90;99.90
25332;DHT22;13284;52.748;13.452;2024-03-02T12:57:31;15.70;99.90
25332;DHT22;13284;52.748;13.452;2024-03-02T13:00:07;15.80;99.90
25332;DHT22;13284;52.748;13.452;2024-03-02T13:02:39;16.20;99.90
25332;DHT22;13284;52.748;13.452;2024-03-02T13:05:06;16.50;99.90
25332;DHT22;13284;52.748;13.452;2024-03-02T13:07:32;16.80;99.90
25332;DHT22;13284;52.748;13.452;2024-03-02T13:09:59;17.30;99.90
25332;DHT22;13284;52.748;13.452;2024-03-02T13:12:24;17.30;99.90
25332;DHT22;13284;52.748;13.452;2024-03-02T13:14:53;16.70;99.90
25332;DHT22;13284;52.748;13.452;2024-03-02T13:17:19;16.60;99.90
25332;DHT22;13284;52.748;13.452;2024-03-02T13:19:55;16.60;99.90
25332;DHT22;13284;52.748;13.452;2024-03-02T13:22:21;17.10;99.90
25332;DHT22;13284;52.748;13.452;2024-03-02T13:24:47;17.20;99.90
25332;DHT22;13284;52.748;13.452;2024-03-02T13:27:13;17.30;99.90
25332;DHT22;13284;52.748;13.452;2024-03-02T13:29:38;17.30;99.90
25332;DHT22;13284;52.748;13.452;2024-03-02T13:32:05;17.00;99.90
25332;DHT22;13284;52.748;13.452;2024-03-02T13:34:30;16.80;99.90
25332;DHT22;13284;52.748;13.452;2024-03-02T13:36:56;17.20;99.90
25332;DHT22;13284;52.748;13.452;2024-03-02T13:39:21;17.10;99.90
25332;DHT22;13284;52.748;13.452;2024-03-02T13:41:46;17.00;99.90
25332;DHT22;13284;52.748;13.452;2024-03-02T13:44:19;17.20;99.90
25332;DHT22;13284;52.748;13.452;2024-03-02T13:46:44;17.50;99.90
25332;DHT22;13284;52.748;13.452;2024-03-02T13:49:11;17.50;99.90
25332;DHT22;13284;52.748;13.452;2024-03-02T13:51:37;17.30;99.90
25332;DHT22;13284;52.748;13.452;2024-03-02T13:54:03;17.20;99.90
25332;DHT22;13284;52.748;13.452;2024-03-02T13:56:29;17.20;99.90
25332;DHT22;13284;52.748;13.452;2024-03-02T13:58:55;16.80;99.90
25332;DHT22;13284;52.748;13.452;2024-03-02T14:01:20;16.60;99.90
25332;DHT22;13284;52.748;13.452;2024-03-02T14:03:46;16.50;99.90
25332;DHT22;13284;52.748;13.452;2024-03-02T14:06:12;16.10;99.90
25332;DHT22;13284;52.748;13.452;2024-03-02T14:08:37;16.00;99.90
25332;DHT22;13284;52.748;13.452;2024-03-02T14:11:03;15.80;99.90
25332;DHT22;13284;52.748;13.452;2024-03-02T14:13:29;15.80;99.90
25332;DHT22;13284;52.748;13.452;2024-03-02T14:15:54;15.90;99.90
25332;DHT22;13284;52.748;13.452;2024-03-02T14:18:20;15.90;99.90
25332;DHT22;13284;52.748;13.452;2024-03-02T14:20:46;15.90;99.90
25332;DHT22;13284;52.748;13.452;2024-03-02T14:23:17;15.70;99.90
25332;DHT22;13284;52.748;13.452;2024-03-02T14:25:43;15.80;99.90
25332;DHT22;13284;52.748;13.452;2024-03-02T14:28:08;15.50;99.90
25332;DHT22;13284;52.748;13.452;2024-03-02T14:30:34;15.50;99.90
25332;DHT22;13284;52.748;13.452;2024-03-02T14:33:00;15.50;99.90
25332;DHT22;13284;52.748;13.452;2024-03-02T14:35:25;15.50;99.90
25332;DHT22;13284;52.748;13.452;2024-03-02T14:37:51;15.40;99.90
25332;DHT22;13284;52.748;13.452;2024-03-02T14:40:18;15.40;99.90
25332;DHT22;13284;52.748;13.452;2024-03-02T14:42:43;15.10;99.90
25332;DHT22;13284;52.748;13.452;2024-03-02T14:45:12;14.90;99.90
25332;DHT22;13284;52.748;13.452;2024-03-02T14:47:38;14.90;99.90
25332;DHT22;13284;52.748;13.452;2024-03-02T14:50:04;14.90;99.90
25332;DHT22;13284;52.748;13.452;2024-03-02T14:52:33;14.80;99.90
25332;DHT22;13284;52.748;13.452;2024-03-02T14:54:58;14.70;99.90
25332;DHT22;13284;52.748;13.452;2024-03-02T14:57:24;14.60;99.90
25332;DHT22;13284;52.748;13.452;2024-03-02T14:59:50;14.30;99.90
25332;DHT22;13284;52.748;13.452;2024-03-02T15:02:15;14.20;99.90
25332;DHT22;13284;52.748;13.452;2024-03-02T15:04:41;14.20;99.90
25332;DHT22;13284;52.748;13.452;2024-03-02T15:07:07;14.10;99.90
25332;DHT22;13284;52.748;13.452;2024-03-02T15:09:32;13.90;99.90
25332;DHT22;13284;52.748;13.452;2024-03-02T15:12:00;13.80;99.90
25332;DHT22;13284;52.748;13.452;2024-03-02T15:14:25;13.90;99.90
25332;DHT22;13284;52.748;13.452;2024-03-02T15:16:51;13.70;99.90
25332;DHT22;13284;52.748;13.452;2024-03-02T15:19:16;13.70;99.90